sensor_id;sensor_type;location;lat;lon;timestamp;P1;durP1;ratioP1;P2;durP2;ratioP2
10281;SDS011;5186;59.472;18.048;2023-12-20T00:00:56;10.50;;;2.10;;
10281;SDS011;5186;59.472;18.048;2023-12-20T00:03:21;8.67;;;1.57;;
10281;SDS011;5186;59.472;18.048;2023-12-20T00:05:47;8.50;;;1.77;;
10281;SDS011;5186;59.472;18.048;2023-12-20T00:08:13;8.57;;;1.13;;
10281;SDS011;5186;59.472;18.048;2023-12-20T00:10:38;8.23;;;1.40;;
10281;SDS011;5186;59.472;18.048;2023-12-20T00:13:04;10.47;;;1.90;;
10281;SDS011;5186;59.472;18.048;2023-12-20T00:15:29;11.57;;;1.90;;
10281;SDS011;5186;59.472;18.048;2023-12-20T00:17:55;8.30;;;1.77;;
10281;SDS011;5186;59.472;18.048;2023-12-20T00:20:20;7.73;;;1.70;;
10281;SDS011;5186;59.472;18.048;2023-12-20T00:22:46;8.73;;;1.63;;
10281;SDS011;5186;59.472;18.048;2023-12-20T00:25:12;7.70;;;1.50;;
10281;SDS011;5186;59.472;18.048;2023-12-20T00:27:37;6.37;;;1.40;;
10281;SDS011;5186;59.472;18.048;2023-12-20T00:30:03;9.13;;;1.70;;
10281;SDS011;5186;59.472;18.048;2023-12-20T00:32:29;7.13;;;1.10;;
10281;SDS011;5186;59.472;18.048;2023-12-20T00:34:55;8.57;;;1.70;;
10281;SDS011;5186;59.472;18.048;2023-12-20T00:37:21;7.03;;;1.97;;
10281;SDS011;5186;59.472;18.048;2023-12-20T00:39:46;4.40;;;1.23;;
10281;SDS011;5186;59.472;18.048;2023-12-20T00:42:13;9.50;;;1.57;;
10281;SDS011;5186;59.472;18.048;2023-12-20T00:44:38;5.13;;;1.20;;
10281;SDS011;5186;59.472;18.048;2023-12-20T00:47:04;11.03;;;1.60;;
10281;SDS011;5186;59.472;18.048;2023-12-20T00:49:30;5.37;;;1.20;;
10281;SDS011;5186;59.472;18.048;2023-12-20T00:51:56;8.20;;;1.40;;
10281;SDS011;5186;59.472;18.048;2023-12-20T00:54:21;8.57;;;1.13;;
10281;SDS011;5186;59.472;18.048;2023-12-20T00:56:47;6.03;;;1.40;;
10281;SDS011;5186;59.472;18.048;2023-12-20T00:59:12;9.00;;;1.53;;
10281;SDS011;5186;59.472;18.048;2023-12-20T01:01:39;9.23;;;1.63;;
10281;SDS011;5186;59.472;18.048;2023-12-20T01:04:05;5.67;;;1.03;;
10281;SDS011;5186;59.472;18.048;2023-12-20T01:06:30;4.70;;;1.30;;
10281;SDS011;5186;59.472;18.048;2023-12-20T01:08:56;8.57;;;1.80;;
10281;SDS011;5186;59.472;18.048;2023-12-20T01:11:21;5.20;;;1.50;;
10281;SDS011;5186;59.472;18.048;2023-12-20T01:13:47;6.77;;;1.40;;
10281;SDS011;5186;59.472;18.048;2023-12-20T01:16:12;6.90;;;1.17;;
10281;SDS011;5186;59.472;18.048;2023-12-20T01:18:38;6.83;;;1.20;;
10281;SDS011;5186;59.472;18.048;2023-12-20T01:21:04;8.40;;;1.57;;
10281;SDS011;5186;59.472;18.048;2023-12-20T01:23:30;10.23;;;1.77;;
10281;SDS011;5186;59.472;18.048;2023-12-20T01:25:56;5.40;;;1.40;;
10281;SDS011;5186;59.472;18.048;2023-12-20T01:28:21;8.13;;;1.30;;
10281;SDS011;5186;59.472;18.048;2023-12-20T01:30:47;6.97;;;1.50;;
10281;SDS011;5186;59.472;18.048;2023-12-20T01:33:13;9.83;;;1.90;;
10281;SDS011;5186;59.472;18.048;2023-12-20T01:35:38;4.47;;;1.10;;
10281;SDS011;5186;59.472;18.048;2023-12-20T01:38:04;7.40;;;1.50;;
10281;SDS011;5186;59.472;18.048;2023-12-20T01:40:29;6.83;;;1.30;;
10281;SDS011;5186;59.472;18.048;2023-12-20T01:42:59;5.97;;;1.27;;
10281;SDS011;5186;59.472;18.048;2023-12-20T01:45:31;7.20;;;1.30;;
10281;SDS011;5186;59.472;18.048;2023-12-20T01:47:57;6.60;;;1.43;;
10281;SDS011;5186;59.472;18.048;2023-12-20T01:50:23;8.30;;;1.70;;
10281;SDS011;5186;59.472;18.048;2023-12-20T01:52:50;10.57;;;1.40;;
10281;SDS011;5186;59.472;18.048;2023-12-20T01:55:17;9.00;;;1.83;;
10281;SDS011;5186;59.472;18.048;2023-12-20T01:57:44;11.37;;;1.87;;
10281;SDS011;5186;59.472;18.048;2023-12-20T02:00:11;7.47;;;1.50;;
10281;SDS011;5186;59.472;18.048;2023-12-20T02:02:39;4.33;;;1.30;;
10281;SDS011;5186;59.472;18.048;2023-12-20T02:05:05;9.23;;;1.57;;
10281;SDS011;5186;59.472;18.048;2023-12-20T02:07:31;4.63;;;1.23;;
10281;SDS011;5186;59.472;18.048;2023-12-20T02:09:58;9.77;;;1.77;;
10281;SDS011;5186;59.472;18.048;2023-12-20T02:12:23;8.03;;;1.50;;
10281;SDS011;5186;59.472;18.048;2023-12-20T02:14:49;10.07;;;1.80;;
10281;SDS011;5186;59.472;18.048;2023-12-20T02:17:15;13.33;;;1.53;;
10281;SDS011;5186;59.472;18.048;2023-12-20T02:19:41;9.67;;;1.40;;
10281;SDS011;5186;59.472;18.048;2023-12-20T02:22:10;5.83;;;1.50;;
10281;SDS011;5186;59.472;18.048;2023-12-20T02:24:36;8.30;;;1.37;;
10281;SDS011;5186;59.472;18.048;2023-12-20T02:27:01;10.90;;;2.13;;
10281;SDS011;5186;59.472;18.048;2023-12-20T02:29:28;9.77;;;1.43;;
10281;SDS011;5186;59.472;18.048;2023-12-20T02:31:53;7.03;;;1.33;;
10281;SDS011;5186;59.472;18.048;2023-12-20T02:34:19;10.33;;;1.60;;
10281;SDS011;5186;59.472;18.048;2023-12-20T02:36:44;9.07;;;1.50;;
10281;SDS011;5186;59.472;18.048;2023-12-20T02:39:10;9.10;;;2.07;;
10281;SDS011;5186;59.472;18.048;2023-12-20T02:41:35;9.53;;;1.30;;
10281;SDS011;5186;59.472;18.048;2023-12-20T02:44:01;6.60;;;1.70;;
10281;SDS011;5186;59.472;18.048;2023-12-20T02:46:28;6.47;;;1.30;;
10281;SDS011;5186;59.472;18.048;2023-12-20T02:48:54;6.20;;;1.40;;
10281;SDS011;5186;59.472;18.048;2023-12-20T02:51:20;10.87;;;1.60;;
10281;SDS011;5186;59.472;18.048;2023-12-20T02:53:45;9.67;;;1.37;;
10281;SDS011;5186;59.472;18.048;2023-12-20T02:56:11;7.83;;;1.37;;
10281;SDS011;5186;59.472;18.048;2023-12-20T02:58:36;14.30;;;1.80;;
10281;SDS011;5186;59.472;18.048;2023-12-20T03:01:02;7.40;;;1.53;;
10281;SDS011;5186;59.472;18.048;2023-12-20T03:03:28;6.53;;;1.63;;
10281;SDS011;5186;59.472;18.048;2023-12-20T03:05:53;10.53;;;1.70;;
10281;SDS011;5186;59.472;18.048;2023-12-20T03:08:19;7.93;;;1.70;;
10281;SDS011;5186;59.472;18.048;2023-12-20T03:10:44;7.43;;;1.30;;
10281;SDS011;5186;59.472;18.048;2023-12-20T03:13:10;9.93;;;1.87;;
10281;SDS011;5186;59.472;18.048;2023-12-20T03:15:35;8.03;;;1.73;;
10281;SDS011;5186;59.472;18.048;2023-12-20T03:18:02;10.27;;;1.50;;
10281;SDS011;5186;59.472;18.048;2023-12-20T03:20:27;10.17;;;1.80;;
10281;SDS011;5186;59.472;18.048;2023-12-20T03:22:53;7.30;;;1.30;;
10281;SDS011;5186;59.472;18.048;2023-12-20T03:25:18;11.70;;;1.60;;
10281;SDS011;5186;59.472;18.048;2023-12-20T03:27:44;13.03;;;1.70;;
10281;SDS011;5186;59.472;18.048;2023-12-20T03:30:10;8.93;;;1.53;;
10281;SDS011;5186;59.472;18.048;2023-12-20T03:32:36;10.37;;;1.67;;
10281;SDS011;5186;59.472;18.048;2023-12-20T03:35:03;6.43;;;1.67;;
10281;SDS011;5186;59.472;18.048;2023-12-20T03:37:29;11.73;;;1.60;;
10281;SDS011;5186;59.472;18.048;2023-12-20T03:39:54;9.57;;;1.50;;
10281;SDS011;5186;59.472;18.048;2023-12-20T03:42:20;7.90;;;1.43;;
10281;SDS011;5186;59.472;18.048;2023-12-20T03:44:45;10.90;;;1.83;;
10281;SDS011;5186;59.472;18.048;2023-12-20T03:47:11;6.40;;;1.27;;
10281;SDS011;5186;59.472;18.048;2023-12-20T03:49:36;11.10;;;1.60;;
10281;SDS011;5186;59.472;18.048;2023-12-20T03:52:03;11.97;;;1.87;;
10281;SDS011;5186;59.472;18.048;2023-12-20T03:54:29;5.63;;;1.30;;
10281;SDS011;5186;59.472;18.048;2023-12-20T03:56:55;7.77;;;1.97;;
10281;SDS011;5186;59.472;18.048;2023-12-20T03:59:20;8.30;;;1.40;;
10281;SDS011;5186;59.472;18.048;2023-12-20T04:01:46;7.40;;;1.37;;
10281;SDS011;5186;59.472;18.048;2023-12-20T04:04:12;14.27;;;1.70;;
10281;SDS011;5186;59.472;18.048;2023-12-20T04:06:38;11.07;;;2.00;;
10281;SDS011;5186;59.472;18.048;2023-12-20T04:09:03;5.47;;;1.53;;
10281;SDS011;5186;59.472;18.048;2023-12-20T04:11:29;9.83;;;1.60;;
10281;SDS011;5186;59.472;18.048;2023-12-20T04:13:55;8.13;;;1.47;;
10281;SDS011;5186;59.472;18.048;2023-12-20T04:16:20;5.60;;;1.23;;
10281;SDS011;5186;59.472;18.048;2023-12-20T04:18:46;6.67;;;1.50;;
10281;SDS011;5186;59.472;18.048;2023-12-20T04:21:11;7.40;;;1.73;;
10281;SDS011;5186;59.472;18.048;2023-12-20T04:23:37;7.33;;;1.47;;
10281;SDS011;5186;59.472;18.048;2023-12-20T04:26:02;5.53;;;1.77;;
10281;SDS011;5186;59.472;18.048;2023-12-20T04:28:28;8.90;;;1.60;;
10281;SDS011;5186;59.472;18.048;2023-12-20T04:30:56;8.67;;;1.60;;
10281;SDS011;5186;59.472;18.048;2023-12-20T04:33:22;4.13;;;1.80;;
10281;SDS011;5186;59.472;18.048;2023-12-20T04:35:48;7.87;;;1.80;;
10281;SDS011;5186;59.472;18.048;2023-12-20T04:38:13;7.50;;;1.53;;
10281;SDS011;5186;59.472;18.048;2023-12-20T04:40:39;9.50;;;1.50;;
10281;SDS011;5186;59.472;18.048;2023-12-20T04:43:06;8.47;;;1.83;;
10281;SDS011;5186;59.472;18.048;2023-12-20T04:45:32;11.00;;;1.83;;
10281;SDS011;5186;59.472;18.048;2023-12-20T04:47:57;9.30;;;2.03;;
10281;SDS011;5186;59.472;18.048;2023-12-20T04:50:23;11.03;;;1.73;;
10281;SDS011;5186;59.472;18.048;2023-12-20T04:52:48;4.63;;;1.40;;
10281;SDS011;5186;59.472;18.048;2023-12-20T04:55:14;10.80;;;1.70;;
10281;SDS011;5186;59.472;18.048;2023-12-20T04:57:40;9.67;;;1.70;;
10281;SDS011;5186;59.472;18.048;2023-12-20T05:00:05;5.90;;;1.40;;
10281;SDS011;5186;59.472;18.048;2023-12-20T05:02:33;11.67;;;1.87;;
10281;SDS011;5186;59.472;18.048;2023-12-20T05:04:59;4.23;;;1.60;;
10281;SDS011;5186;59.472;18.048;2023-12-20T05:07:25;7.17;;;1.90;;
10281;SDS011;5186;59.472;18.048;2023-12-20T05:09:50;13.47;;;1.97;;
10281;SDS011;5186;59.472;18.048;2023-12-20T05:12:16;5.00;;;1.83;;
10281;SDS011;5186;59.472;18.048;2023-12-20T05:14:42;7.67;;;1.90;;
10281;SDS011;5186;59.472;18.048;2023-12-20T05:17:07;4.33;;;1.40;;
10281;SDS011;5186;59.472;18.048;2023-12-20T05:19:33;9.77;;;2.17;;
10281;SDS011;5186;59.472;18.048;2023-12-20T05:22:00;4.73;;;1.43;;
10281;SDS011;5186;59.472;18.048;2023-12-20T05:24:26;10.77;;;1.93;;
10281;SDS011;5186;59.472;18.048;2023-12-20T05:26:52;10.67;;;1.90;;
10281;SDS011;5186;59.472;18.048;2023-12-20T05:29:17;5.17;;;1.57;;
10281;SDS011;5186;59.472;18.048;2023-12-20T05:31:43;6.90;;;1.67;;
10281;SDS011;5186;59.472;18.048;2023-12-20T05:34:09;6.30;;;1.33;;
10281;SDS011;5186;59.472;18.048;2023-12-20T05:36:35;5.50;;;1.83;;
10281;SDS011;5186;59.472;18.048;2023-12-20T05:39:01;9.37;;;1.97;;
10281;SDS011;5186;59.472;18.048;2023-12-20T05:41:29;6.17;;;1.80;;
10281;SDS011;5186;59.472;18.048;2023-12-20T05:43:55;9.27;;;1.90;;
10281;SDS011;5186;59.472;18.048;2023-12-20T05:46:20;3.73;;;1.67;;
10281;SDS011;5186;59.472;18.048;2023-12-20T05:48:46;5.63;;;1.90;;
10281;SDS011;5186;59.472;18.048;2023-12-20T05:51:12;6.77;;;1.80;;
10281;SDS011;5186;59.472;18.048;2023-12-20T05:53:38;4.83;;;1.83;;
10281;SDS011;5186;59.472;18.048;2023-12-20T05:56:04;4.77;;;1.53;;
10281;SDS011;5186;59.472;18.048;2023-12-20T05:58:29;7.13;;;1.87;;
10281;SDS011;5186;59.472;18.048;2023-12-20T06:00:55;3.70;;;1.80;;
10281;SDS011;5186;59.472;18.048;2023-12-20T06:03:20;6.73;;;2.17;;
10281;SDS011;5186;59.472;18.048;2023-12-20T06:05:46;3.67;;;1.80;;
10281;SDS011;5186;59.472;18.048;2023-12-20T06:08:12;7.03;;;2.13;;
10281;SDS011;5186;59.472;18.048;2023-12-20T06:10:37;11.63;;;2.23;;
10281;SDS011;5186;59.472;18.048;2023-12-20T06:13:06;5.20;;;1.77;;
10281;SDS011;5186;59.472;18.048;2023-12-20T06:15:32;6.67;;;1.83;;
10281;SDS011;5186;59.472;18.048;2023-12-20T06:17:58;7.73;;;2.60;;
10281;SDS011;5186;59.472;18.048;2023-12-20T06:20:23;10.50;;;2.53;;
10281;SDS011;5186;59.472;18.048;2023-12-20T06:22:49;8.63;;;2.60;;
10281;SDS011;5186;59.472;18.048;2023-12-20T06:25:16;7.80;;;3.47;;
10281;SDS011;5186;59.472;18.048;2023-12-20T06:27:41;9.07;;;2.10;;
10281;SDS011;5186;59.472;18.048;2023-12-20T06:30:07;8.87;;;2.67;;
10281;SDS011;5186;59.472;18.048;2023-12-20T06:32:34;6.83;;;3.03;;
10281;SDS011;5186;59.472;18.048;2023-12-20T06:35:00;10.63;;;2.67;;
10281;SDS011;5186;59.472;18.048;2023-12-20T06:37:25;10.23;;;2.70;;
10281;SDS011;5186;59.472;18.048;2023-12-20T06:39:51;7.23;;;2.47;;
10281;SDS011;5186;59.472;18.048;2023-12-20T06:42:17;9.20;;;2.57;;
10281;SDS011;5186;59.472;18.048;2023-12-20T06:44:42;10.40;;;3.13;;
10281;SDS011;5186;59.472;18.048;2023-12-20T06:47:08;9.30;;;3.60;;
10281;SDS011;5186;59.472;18.048;2023-12-20T06:49:33;5.10;;;2.73;;
10281;SDS011;5186;59.472;18.048;2023-12-20T06:51:59;5.97;;;2.90;;
10281;SDS011;5186;59.472;18.048;2023-12-20T06:54:24;9.20;;;2.50;;
10281;SDS011;5186;59.472;18.048;2023-12-20T06:56:50;8.90;;;3.37;;
10281;SDS011;5186;59.472;18.048;2023-12-20T06:59:16;8.30;;;3.10;;
10281;SDS011;5186;59.472;18.048;2023-12-20T07:01:41;11.40;;;3.40;;
10281;SDS011;5186;59.472;18.048;2023-12-20T07:04:07;7.97;;;3.10;;
10281;SDS011;5186;59.472;18.048;2023-12-20T07:06:33;10.20;;;3.40;;
10281;SDS011;5186;59.472;18.048;2023-12-20T07:08:58;8.90;;;3.10;;
10281;SDS011;5186;59.472;18.048;2023-12-20T07:11:24;6.80;;;3.17;;
10281;SDS011;5186;59.472;18.048;2023-12-20T07:13:51;6.87;;;3.10;;
10281;SDS011;5186;59.472;18.048;2023-12-20T07:16:16;11.70;;;3.50;;
10281;SDS011;5186;59.472;18.048;2023-12-20T07:18:42;11.17;;;2.90;;
10281;SDS011;5186;59.472;18.048;2023-12-20T07:21:08;9.70;;;3.70;;
10281;SDS011;5186;59.472;18.048;2023-12-20T07:23:33;8.90;;;4.00;;
10281;SDS011;5186;59.472;18.048;2023-12-20T07:25:59;11.00;;;3.57;;
10281;SDS011;5186;59.472;18.048;2023-12-20T07:28:24;14.33;;;4.17;;
10281;SDS011;5186;59.472;18.048;2023-12-20T07:30:50;12.90;;;4.27;;
10281;SDS011;5186;59.472;18.048;2023-12-20T07:33:16;17.17;;;5.53;;
10281;SDS011;5186;59.472;18.048;2023-12-20T07:35:41;14.37;;;4.80;;
10281;SDS011;5186;59.472;18.048;2023-12-20T07:38:07;14.90;;;4.90;;
10281;SDS011;5186;59.472;18.048;2023-12-20T07:40:32;13.20;;;4.77;;
10281;SDS011;5186;59.472;18.048;2023-12-20T07:42:58;14.97;;;5.33;;
10281;SDS011;5186;59.472;18.048;2023-12-20T07:45:23;18.23;;;5.50;;
10281;SDS011;5186;59.472;18.048;2023-12-20T07:47:49;14.93;;;5.00;;
10281;SDS011;5186;59.472;18.048;2023-12-20T07:50:15;11.50;;;5.07;;
10281;SDS011;5186;59.472;18.048;2023-12-20T07:52:41;18.13;;;5.10;;
10281;SDS011;5186;59.472;18.048;2023-12-20T07:55:06;11.83;;;4.80;;
10281;SDS011;5186;59.472;18.048;2023-12-20T07:57:32;22.20;;;5.30;;
10281;SDS011;5186;59.472;18.048;2023-12-20T07:59:58;15.30;;;5.43;;
10281;SDS011;5186;59.472;18.048;2023-12-20T08:02:23;13.77;;;5.17;;
10281;SDS011;5186;59.472;18.048;2023-12-20T08:04:49;18.50;;;5.67;;
10281;SDS011;5186;59.472;18.048;2023-12-20T08:07:14;10.27;;;4.13;;
10281;SDS011;5186;59.472;18.048;2023-12-20T08:09:40;12.77;;;4.67;;
10281;SDS011;5186;59.472;18.048;2023-12-20T08:12:05;15.67;;;4.40;;
10281;SDS011;5186;59.472;18.048;2023-12-20T08:14:31;17.73;;;4.80;;
10281;SDS011;5186;59.472;18.048;2023-12-20T08:16:57;14.67;;;4.63;;
10281;SDS011;5186;59.472;18.048;2023-12-20T08:19:22;13.20;;;4.80;;
10281;SDS011;5186;59.472;18.048;2023-12-20T08:21:48;13.07;;;4.97;;
10281;SDS011;5186;59.472;18.048;2023-12-20T08:24:14;19.17;;;5.93;;
10281;SDS011;5186;59.472;18.048;2023-12-20T08:26:39;14.43;;;5.37;;
10281;SDS011;5186;59.472;18.048;2023-12-20T08:29:05;33.17;;;6.13;;
10281;SDS011;5186;59.472;18.048;2023-12-20T08:31:31;14.57;;;6.00;;
10281;SDS011;5186;59.472;18.048;2023-12-20T08:33:56;14.13;;;5.73;;
10281;SDS011;5186;59.472;18.048;2023-12-20T08:36:22;13.13;;;5.37;;
10281;SDS011;5186;59.472;18.048;2023-12-20T08:38:48;14.37;;;5.47;;
10281;SDS011;5186;59.472;18.048;2023-12-20T08:41:15;17.40;;;6.03;;
10281;SDS011;5186;59.472;18.048;2023-12-20T08:43:42;16.00;;;5.50;;
10281;SDS011;5186;59.472;18.048;2023-12-20T08:46:08;22.77;;;6.30;;
10281;SDS011;5186;59.472;18.048;2023-12-20T08:48:37;15.10;;;5.63;;
10281;SDS011;5186;59.472;18.048;2023-12-20T08:51:03;16.67;;;6.00;;
10281;SDS011;5186;59.472;18.048;2023-12-20T08:53:29;15.60;;;6.33;;
10281;SDS011;5186;59.472;18.048;2023-12-20T08:55:55;17.37;;;6.47;;
10281;SDS011;5186;59.472;18.048;2023-12-20T08:58:20;30.40;;;7.47;;
10281;SDS011;5186;59.472;18.048;2023-12-20T09:00:46;18.43;;;6.70;;
10281;SDS011;5186;59.472;18.048;2023-12-20T09:03:12;18.77;;;6.00;;
10281;SDS011;5186;59.472;18.048;2023-12-20T09:05:37;22.90;;;7.13;;
10281;SDS011;5186;59.472;18.048;2023-12-20T09:08:03;18.90;;;6.43;;
10281;SDS011;5186;59.472;18.048;2023-12-20T09:10:29;17.30;;;6.03;;
10281;SDS011;5186;59.472;18.048;2023-12-20T09:12:54;18.50;;;6.30;;
10281;SDS011;5186;59.472;18.048;2023-12-20T09:15:26;22.50;;;7.07;;
10281;SDS011;5186;59.472;18.048;2023-12-20T09:17:52;20.90;;;7.03;;
10281;SDS011;5186;59.472;18.048;2023-12-20T09:20:18;18.77;;;7.40;;
10281;SDS011;5186;59.472;18.048;2023-12-20T09:22:44;22.47;;;7.37;;
10281;SDS011;5186;59.472;18.048;2023-12-20T09:25:10;22.97;;;8.30;;
10281;SDS011;5186;59.472;18.048;2023-12-20T09:27:37;21.17;;;8.10;;
10281;SDS011;5186;59.472;18.048;2023-12-20T09:30:03;22.77;;;8.10;;
10281;SDS011;5186;59.472;18.048;2023-12-20T09:32:30;20.90;;;7.60;;
10281;SDS011;5186;59.472;18.048;2023-12-20T09:34:56;20.30;;;7.07;;
10281;SDS011;5186;59.472;18.048;2023-12-20T09:37:21;19.40;;;7.70;;
10281;SDS011;5186;59.472;18.048;2023-12-20T09:39:47;24.77;;;7.93;;
10281;SDS011;5186;59.472;18.048;2023-12-20T09:42:13;17.90;;;7.27;;
10281;SDS011;5186;59.472;18.048;2023-12-20T09:44:46;23.30;;;7.77;;
10281;SDS011;5186;59.472;18.048;2023-12-20T09:47:12;22.33;;;7.83;;
10281;SDS011;5186;59.472;18.048;2023-12-20T09:49:39;24.30;;;8.37;;
10281;SDS011;5186;59.472;18.048;2023-12-20T09:52:07;18.67;;;7.23;;
10281;SDS011;5186;59.472;18.048;2023-12-20T09:54:35;21.13;;;7.87;;
10281;SDS011;5186;59.472;18.048;2023-12-20T09:57:01;28.27;;;8.53;;
10281;SDS011;5186;59.472;18.048;2023-12-20T09:59:26;26.37;;;7.97;;
10281;SDS011;5186;59.472;18.048;2023-12-20T10:01:52;19.50;;;8.17;;
10281;SDS011;5186;59.472;18.048;2023-12-20T10:04:20;19.93;;;7.60;;
10281;SDS011;5186;59.472;18.048;2023-12-20T10:06:46;17.33;;;7.87;;
10281;SDS011;5186;59.472;18.048;2023-12-20T10:09:12;18.50;;;7.57;;
10281;SDS011;5186;59.472;18.048;2023-12-20T10:11:38;18.27;;;8.03;;
10281;SDS011;5186;59.472;18.048;2023-12-20T10:14:04;18.33;;;7.47;;
10281;SDS011;5186;59.472;18.048;2023-12-20T10:16:31;23.67;;;8.33;;
10281;SDS011;5186;59.472;18.048;2023-12-20T10:18:57;22.03;;;8.10;;
10281;SDS011;5186;59.472;18.048;2023-12-20T10:21:23;18.73;;;8.40;;
10281;SDS011;5186;59.472;18.048;2023-12-20T10:23:51;21.93;;;7.87;;
10281;SDS011;5186;59.472;18.048;2023-12-20T10:26:25;22.63;;;7.50;;
10281;SDS011;5186;59.472;18.048;2023-12-20T10:28:52;19.97;;;8.00;;
10281;SDS011;5186;59.472;18.048;2023-12-20T10:31:29;23.13;;;7.40;;
10281;SDS011;5186;59.472;18.048;2023-12-20T10:33:56;18.60;;;7.30;;
10281;SDS011;5186;59.472;18.048;2023-12-20T10:36:24;16.53;;;7.50;;
10281;SDS011;5186;59.472;18.048;2023-12-20T10:38:59;21.77;;;7.97;;
10281;SDS011;5186;59.472;18.048;2023-12-20T10:41:29;22.63;;;7.80;;
10281;SDS011;5186;59.472;18.048;2023-12-20T10:43:58;17.87;;;7.30;;
10281;SDS011;5186;59.472;18.048;2023-12-20T10:46:28;16.77;;;7.13;;
10281;SDS011;5186;59.472;18.048;2023-12-20T10:48:55;16.10;;;7.50;;
10281;SDS011;5186;59.472;18.048;2023-12-20T10:51:22;21.40;;;6.97;;
10281;SDS011;5186;59.472;18.048;2023-12-20T10:53:49;15.73;;;6.73;;
10281;SDS011;5186;59.472;18.048;2023-12-20T10:56:16;16.40;;;6.87;;
10281;SDS011;5186;59.472;18.048;2023-12-20T10:58:43;15.73;;;6.97;;
10281;SDS011;5186;59.472;18.048;2023-12-20T11:01:09;14.63;;;5.93;;
10281;SDS011;5186;59.472;18.048;2023-12-20T11:03:37;15.10;;;6.60;;
10281;SDS011;5186;59.472;18.048;2023-12-20T11:06:15;12.70;;;6.33;;
10281;SDS011;5186;59.472;18.048;2023-12-20T11:17:13;11.07;;;5.43;;
10281;SDS011;5186;59.472;18.048;2023-12-20T11:22:26;12.70;;;5.27;;
10281;SDS011;5186;59.472;18.048;2023-12-20T11:27:31;16.47;;;5.97;;
10281;SDS011;5186;59.472;18.048;2023-12-20T11:29:57;13.63;;;5.23;;
10281;SDS011;5186;59.472;18.048;2023-12-20T11:34:58;13.37;;;4.80;;
10281;SDS011;5186;59.472;18.048;2023-12-20T11:37:31;13.00;;;4.33;;
10281;SDS011;5186;59.472;18.048;2023-12-20T11:40:02;11.13;;;4.37;;
10281;SDS011;5186;59.472;18.048;2023-12-20T11:42:32;9.23;;;3.90;;
10281;SDS011;5186;59.472;18.048;2023-12-20T11:44:59;9.63;;;3.77;;
10281;SDS011;5186;59.472;18.048;2023-12-20T11:47:28;9.97;;;3.67;;
10281;SDS011;5186;59.472;18.048;2023-12-20T11:49:55;8.47;;;3.83;;
10281;SDS011;5186;59.472;18.048;2023-12-20T11:52:21;8.23;;;3.37;;
10281;SDS011;5186;59.472;18.048;2023-12-20T11:54:47;7.47;;;3.37;;
10281;SDS011;5186;59.472;18.048;2023-12-20T11:57:13;7.80;;;3.33;;
10281;SDS011;5186;59.472;18.048;2023-12-20T11:59:38;6.20;;;3.00;;
10281;SDS011;5186;59.472;18.048;2023-12-20T12:02:05;5.47;;;2.77;;
10281;SDS011;5186;59.472;18.048;2023-12-20T12:04:31;5.80;;;2.40;;
10281;SDS011;5186;59.472;18.048;2023-12-20T12:06:56;6.37;;;2.73;;
10281;SDS011;5186;59.472;18.048;2023-12-20T12:09:22;5.53;;;2.80;;
10281;SDS011;5186;59.472;18.048;2023-12-20T12:11:47;6.63;;;2.70;;
10281;SDS011;5186;59.472;18.048;2023-12-20T12:14:13;6.33;;;2.40;;
10281;SDS011;5186;59.472;18.048;2023-12-20T12:16:41;4.70;;;2.13;;
10281;SDS011;5186;59.472;18.048;2023-12-20T12:19:07;5.27;;;2.53;;
10281;SDS011;5186;59.472;18.048;2023-12-20T12:21:44;4.40;;;2.70;;
10281;SDS011;5186;59.472;18.048;2023-12-20T12:24:10;5.30;;;2.37;;
10281;SDS011;5186;59.472;18.048;2023-12-20T12:26:36;4.97;;;2.43;;
10281;SDS011;5186;59.472;18.048;2023-12-20T12:29:01;4.53;;;2.50;;
10281;SDS011;5186;59.472;18.048;2023-12-20T12:31:27;3.80;;;2.10;;
10281;SDS011;5186;59.472;18.048;2023-12-20T12:33:53;3.47;;;1.97;;
10281;SDS011;5186;59.472;18.048;2023-12-20T12:36:18;5.43;;;2.13;;
10281;SDS011;5186;59.472;18.048;2023-12-20T12:38:44;4.07;;;2.23;;
10281;SDS011;5186;59.472;18.048;2023-12-20T12:41:10;3.97;;;2.00;;
10281;SDS011;5186;59.472;18.048;2023-12-20T12:43:38;4.50;;;1.93;;
10281;SDS011;5186;59.472;18.048;2023-12-20T12:46:03;4.93;;;2.10;;
10281;SDS011;5186;59.472;18.048;2023-12-20T12:48:29;4.67;;;2.20;;
10281;SDS011;5186;59.472;18.048;2023-12-20T12:50:55;4.27;;;2.17;;
10281;SDS011;5186;59.472;18.048;2023-12-20T12:53:24;4.50;;;1.90;;
10281;SDS011;5186;59.472;18.048;2023-12-20T12:55:50;3.83;;;1.77;;
10281;SDS011;5186;59.472;18.048;2023-12-20T12:58:16;5.77;;;2.23;;
10281;SDS011;5186;59.472;18.048;2023-12-20T13:00:41;3.33;;;1.93;;
10281;SDS011;5186;59.472;18.048;2023-12-20T13:03:07;2.83;;;1.70;;
10281;SDS011;5186;59.472;18.048;2023-12-20T13:05:33;3.33;;;1.80;;
10281;SDS011;5186;59.472;18.048;2023-12-20T13:07:59;1.80;;;1.43;;
10281;SDS011;5186;59.472;18.048;2023-12-20T13:10:24;2.53;;;1.40;;
10281;SDS011;5186;59.472;18.048;2023-12-20T13:12:50;3.10;;;1.83;;
10281;SDS011;5186;59.472;18.048;2023-12-20T13:15:15;2.70;;;1.90;;
10281;SDS011;5186;59.472;18.048;2023-12-20T13:17:41;2.43;;;1.50;;
10281;SDS011;5186;59.472;18.048;2023-12-20T13:20:07;2.90;;;1.60;;
10281;SDS011;5186;59.472;18.048;2023-12-20T13:22:33;1.97;;;1.40;;
10281;SDS011;5186;59.472;18.048;2023-12-20T13:24:58;1.97;;;1.40;;
10281;SDS011;5186;59.472;18.048;2023-12-20T13:27:24;3.40;;;1.87;;
10281;SDS011;5186;59.472;18.048;2023-12-20T13:29:49;2.20;;;1.67;;
10281;SDS011;5186;59.472;18.048;2023-12-20T13:32:15;2.60;;;1.33;;
10281;SDS011;5186;59.472;18.048;2023-12-20T13:34:40;3.40;;;1.40;;
10281;SDS011;5186;59.472;18.048;2023-12-20T13:37:06;2.33;;;1.43;;
10281;SDS011;5186;59.472;18.048;2023-12-20T13:39:32;2.13;;;1.60;;
10281;SDS011;5186;59.472;18.048;2023-12-20T13:41:58;2.57;;;1.40;;
10281;SDS011;5186;59.472;18.048;2023-12-20T13:44:23;2.33;;;1.50;;
10281;SDS011;5186;59.472;18.048;2023-12-20T13:46:49;2.70;;;1.60;;
10281;SDS011;5186;59.472;18.048;2023-12-20T13:49:15;3.93;;;1.70;;
10281;SDS011;5186;59.472;18.048;2023-12-20T13:51:40;2.83;;;1.57;;
10281;SDS011;5186;59.472;18.048;2023-12-20T13:54:06;3.23;;;1.70;;
10281;SDS011;5186;59.472;18.048;2023-12-20T13:56:31;2.63;;;1.70;;
10281;SDS011;5186;59.472;18.048;2023-12-20T13:58:58;2.47;;;1.83;;
10281;SDS011;5186;59.472;18.048;2023-12-20T14:01:24;3.07;;;2.03;;
10281;SDS011;5186;59.472;18.048;2023-12-20T14:03:51;2.83;;;2.50;;
10281;SDS011;5186;59.472;18.048;2023-12-20T14:06:17;5.03;;;2.17;;
10281;SDS011;5186;59.472;18.048;2023-12-20T14:08:43;4.57;;;2.30;;
10281;SDS011;5186;59.472;18.048;2023-12-20T14:11:08;4.60;;;2.40;;
10281;SDS011;5186;59.472;18.048;2023-12-20T14:13:34;4.70;;;2.17;;
10281;SDS011;5186;59.472;18.048;2023-12-20T14:15:59;3.90;;;2.40;;
10281;SDS011;5186;59.472;18.048;2023-12-20T14:18:26;3.73;;;2.27;;
10281;SDS011;5186;59.472;18.048;2023-12-20T14:20:52;4.30;;;2.53;;
10281;SDS011;5186;59.472;18.048;2023-12-20T14:23:18;4.07;;;2.23;;
10281;SDS011;5186;59.472;18.048;2023-12-20T14:25:44;3.53;;;2.70;;
10281;SDS011;5186;59.472;18.048;2023-12-20T14:28:10;5.13;;;3.23;;
10281;SDS011;5186;59.472;18.048;2023-12-20T14:30:39;6.37;;;3.30;;
10281;SDS011;5186;59.472;18.048;2023-12-20T14:33:04;6.77;;;3.23;;
10281;SDS011;5186;59.472;18.048;2023-12-20T14:35:30;5.33;;;3.87;;
10281;SDS011;5186;59.472;18.048;2023-12-20T14:37:56;5.67;;;3.20;;
10281;SDS011;5186;59.472;18.048;2023-12-20T14:40:22;6.03;;;3.67;;
10281;SDS011;5186;59.472;18.048;2023-12-20T14:42:47;7.27;;;3.63;;
10281;SDS011;5186;59.472;18.048;2023-12-20T14:45:14;6.27;;;3.53;;
10281;SDS011;5186;59.472;18.048;2023-12-20T14:47:41;7.97;;;4.03;;
10281;SDS011;5186;59.472;18.048;2023-12-20T14:50:07;6.23;;;3.80;;
10281;SDS011;5186;59.472;18.048;2023-12-20T14:52:33;6.60;;;3.97;;